OEBH

Details ICAO OEBH (BHH)
Name BISHA
Region Saudi Arabia
Timezone Asia/Riyadh (UTC+3.0)
Plans Departing 6
Arriving 10
Stats Elevation 3,887 ft / 1,185 m (AMSL)
Location 19.984139° 42.622845°
Runways 1
Magnetic Variation 2.960° E
Sunrise 2017-12-13 03:36:57 UTC / 2017-12-13 06:36:57 Local
Sunset 2017-12-13 14:33:11 UTC / 2017-12-13 17:33:11 Local
Advertisement - Login to hide

Runways

ID Width Length Bearing (true) Bearing (mag) Surface Threshold Offset Overrun Length
18 147 ft / 45 m 10,066 ft / 3,068 m 185.82° 182.86° Asphalt 0 ft / 0 m 990 ft / 302 m
36 147 ft / 45 m 10,066 ft / 3,068 m 5.82° 2.86° Asphalt 0 ft / 0 m 990 ft / 302 m

Approach Navaids

Runway Type Ident Frequency Range Bearing (true) Bearing (mag) Slope Elevation
18 Localiser IBSH 110.10 MHz 18 nm / 33 km 185.39° 182.43° - 3,887 ft / 1,185 m (AMSL)
18 Glidescope IBSH 110.10 MHz 10 nm / 19 km 185.82° 182.86° 3.00° 3,887 ft / 1,185 m (AMSL)
18 DME IBSH 110.10 MHz 18 nm / 33 km - - - 3,887 ft / 1,185 m (AMSL)

Map

Weather


0- 5 10 15 20 25 30 35+ Temperature / ° C

Clouds and Precipitation
Forecast for 2017-12-13 18:00 UTC. Updated 2 hours ago

Ground ~20,000 ft ~40,000 ft Winds

METAR

OEBH 131500Z 07011KT CAVOK 20/M28 Q1019 NOSIG

TAF

Not found

Frequencies

Unicom 122.80 MHz CTAF
Warning: Do not use this data for real-world aviation or navigation. No guarantee of current accuracy is given.